Bishopbriggs, United Kingdom
Current Conditions -  °F | °C
As of 11:50 AM on Thursday 23 Oct 2014 (Local Time) from EGPF Reporting Station
Overcast Overcast  
Wind Chill: 55°   Ceiling: 1000
Heat Index: 55°   Visibility: 4mi
Dew Point: 54°   Wind: 18mph
Humidity: 94%   Direction: 210°SSW
Pressure: 29.77"   Gusts: NA
Location:  55.91°N, 4.22°W
Report Text: EGPF 231050Z AUTO 21016KT 7000 OVC010 13/12 Q1008
Loading
Personal Weather Stations






























Interactive Weather Map
Tropical Storm Tracking
New forecast layout! Learn more

10-Day Weather Forecast

Advertisements
Track Severe Weather on mobile